createdAt,value
2023-01-09T00:00:23.211Z,35.78
2023-01-09T00:02:53.869Z,38.72
2023-01-09T00:05:23.452Z,40.97
2023-01-09T00:07:52.312Z,46.25
2023-01-09T00:10:21.372Z,62.33
2023-01-09T00:12:50.209Z,72.95
2023-01-09T00:15:19.189Z,47.72
2023-01-09T00:17:49.933Z,40.85
2023-01-09T00:20:20.325Z,38.38
2023-01-09T00:22:49.114Z,35.40
2023-01-09T00:25:18.121Z,39.63
2023-01-09T00:27:47.046Z,38.00
2023-01-09T00:30:16.667Z,37.30
2023-01-09T00:32:45.594Z,33.60
2023-01-09T00:35:18.953Z,33.25
2023-01-09T00:37:49.183Z,35.30
2023-01-09T00:40:19.189Z,33.15
2023-01-09T00:42:51.094Z,35.70
2023-01-09T00:45:28.699Z,34.08
2023-01-09T00:48:05.038Z,33.00
2023-01-09T00:50:35.172Z,37.95
2023-01-09T00:53:12.508Z,39.42
2023-01-09T00:55:41.808Z,33.28
2023-01-09T00:58:11.720Z,32.08
2023-01-09T01:00:40.562Z,38.10
2023-01-09T01:03:09.778Z,40.63
2023-01-09T01:05:56.189Z,34.13
2023-01-09T01:08:26.419Z,29.40
2023-01-09T01:10:55.301Z,36.30
2023-01-09T01:13:24.172Z,35.67
2023-01-09T01:15:52.979Z,34.08
2023-01-09T01:18:21.935Z,34.17
2023-01-09T01:20:50.797Z,42.35
2023-01-09T01:23:19.664Z,37.40
2023-01-09T01:25:50.277Z,31.77
2023-01-09T01:28:19.356Z,32.00
2023-01-09T01:30:48.222Z,33.72
2023-01-09T01:33:17.063Z,24.70
2023-01-09T01:35:45.911Z,29.75
2023-01-09T01:38:14.754Z,31.20
2023-01-09T01:40:43.971Z,28.95
2023-01-09T01:43:14.808Z,30.98
2023-01-09T01:45:43.644Z,32.70
2023-01-09T01:48:16.894Z,35.13
2023-01-09T01:50:49.379Z,32.08
2023-01-09T01:53:21.736Z,29.58
2023-01-09T01:56:02.195Z,30.73
2023-01-09T01:58:34.418Z,31.15
2023-01-09T02:01:04.625Z,31.65
2023-01-09T02:03:34.525Z,28.75
2023-01-09T02:06:05.519Z,25.00
2023-01-09T02:08:34.564Z,25.63
2023-01-09T02:11:05.997Z,23.90
2023-01-09T02:13:39.087Z,28.55
2023-01-09T02:16:21.404Z,31.83
2023-01-09T02:18:52.426Z,31.50
2023-01-09T02:21:31.128Z,30.27
2023-01-09T02:24:29.994Z,29.20
2023-01-09T02:27:12.281Z,27.77
2023-01-09T02:30:06.126Z,31.88
2023-01-09T02:32:45.742Z,31.98
2023-01-09T02:35:24.724Z,28.85
2023-01-09T02:38:03.853Z,30.20
2023-01-09T02:40:40.602Z,31.50
2023-01-09T02:43:10.934Z,26.23
2023-01-09T02:45:41.205Z,28.33
2023-01-09T02:48:12.033Z,27.40
2023-01-09T02:50:48.165Z,29.63
2023-01-09T02:53:55.530Z,33.72
2023-01-09T02:56:50.926Z,34.00
2023-01-09T02:59:27.085Z,34.47
2023-01-09T03:02:09.227Z,30.42
2023-01-09T03:04:51.888Z,32.55
2023-01-09T03:07:27.671Z,33.40
2023-01-09T03:10:04.372Z,34.00
2023-01-09T03:12:34.438Z,91.80
2023-01-09T03:15:07.935Z,62.95
2023-01-09T03:17:42.178Z,38.80
2023-01-09T03:20:14.711Z,39.40
2023-01-09T03:22:53.936Z,35.47
2023-01-09T03:25:23.386Z,36.05
2023-01-09T03:27:57.475Z,37.58
2023-01-09T03:30:27.582Z,36.78
2023-01-09T03:32:58.718Z,36.55
2023-01-09T03:35:28.020Z,37.75
2023-01-09T03:37:56.968Z,34.95
2023-01-09T03:40:25.768Z,32.67
2023-01-09T03:42:54.593Z,32.22
2023-01-09T03:45:23.418Z,28.40
2023-01-09T03:47:53.100Z,33.53
2023-01-09T03:50:23.362Z,40.85
2023-01-09T03:52:52.361Z,42.40
2023-01-09T03:55:21.156Z,38.33
2023-01-09T03:57:50.236Z,35.85
2023-01-09T04:00:19.936Z,35.88
2023-01-09T04:02:49.210Z,37.67
2023-01-09T04:05:18.273Z,37.83
2023-01-09T04:07:48.518Z,35.45
2023-01-09T04:10:18.105Z,36.20
2023-01-09T04:12:46.927Z,36.05
2023-01-09T04:15:15.941Z,33.08
2023-01-09T04:17:44.805Z,33.35
2023-01-09T04:20:13.839Z,33.97
2023-01-09T04:22:43.126Z,31.15
2023-01-09T04:25:14.079Z,32.47
2023-01-09T04:27:42.927Z,38.10
2023-01-09T04:30:12.876Z,30.83
2023-01-09T04:32:41.812Z,33.20
2023-01-09T04:35:11.344Z,30.35
2023-01-09T04:37:40.533Z,30.00
2023-01-09T04:40:10.805Z,30.15
2023-01-09T04:42:42.094Z,28.77
2023-01-09T04:45:15.435Z,30.67
2023-01-09T04:47:44.702Z,29.55
2023-01-09T04:50:14.016Z,31.73
2023-01-09T04:52:42.859Z,29.17
2023-01-09T04:55:11.695Z,26.13
2023-01-09T04:57:41.909Z,26.02
2023-01-09T05:00:12.425Z,27.27
2023-01-09T05:02:42.325Z,27.60
2023-01-09T05:05:12.215Z,26.67
2023-01-09T05:07:41.173Z,24.55
2023-01-09T05:10:12.240Z,25.92
2023-01-09T05:12:42.496Z,28.38
2023-01-09T05:15:12.095Z,25.95
2023-01-09T05:17:41.017Z,31.63
2023-01-09T05:20:10.861Z,33.72
2023-01-09T05:22:39.691Z,30.85
2023-01-09T05:25:09.285Z,32.55
2023-01-09T05:27:38.133Z,26.60
2023-01-09T05:30:10.118Z,29.17
2023-01-09T05:32:38.989Z,27.85
2023-01-09T05:35:08.794Z,28.73
2023-01-09T05:37:37.920Z,29.13
2023-01-09T05:40:07.966Z,30.88
2023-01-09T05:42:36.889Z,29.58
2023-01-09T05:45:06.494Z,28.50
2023-01-09T05:47:36.798Z,34.22
2023-01-09T05:50:06.469Z,34.28
2023-01-09T05:52:35.614Z,41.17
2023-01-09T05:55:04.827Z,39.13
2023-01-09T05:57:33.657Z,38.25
2023-01-09T06:00:03.844Z,36.92
2023-01-09T06:02:37.295Z,38.50
2023-01-09T06:05:07.068Z,37.33
2023-01-09T06:07:39.365Z,38.08
2023-01-09T06:10:09.791Z,40.85
2023-01-09T06:12:38.876Z,38.17
2023-01-09T06:15:09.286Z,35.97
2023-01-09T06:17:39.585Z,38.58
2023-01-09T06:20:09.774Z,42.05
2023-01-09T06:22:38.740Z,42.05
2023-01-09T06:25:08.584Z,37.67
2023-01-09T06:27:37.655Z,35.92
2023-01-09T06:30:10.659Z,37.72
2023-01-09T06:32:40.857Z,41.40
2023-01-09T06:35:10.598Z,46.30
2023-01-09T06:37:40.136Z,42.22
2023-01-09T06:40:10.824Z,44.13
2023-01-09T06:42:39.754Z,55.25
2023-01-09T06:45:09.215Z,55.05
2023-01-09T06:47:38.065Z,55.47
2023-01-09T06:50:09.399Z,61.83
2023-01-09T06:52:38.419Z,35.35
2023-01-09T06:55:08.670Z,59.67
2023-01-09T06:57:37.538Z,59.33
2023-01-09T07:00:07.294Z,51.13
2023-01-09T07:02:36.232Z,60.75
2023-01-09T07:05:08.071Z,59.25
2023-01-09T07:07:38.397Z,62.40
2023-01-09T07:10:08.176Z,60.28
2023-01-09T07:12:37.089Z,70.15
2023-01-09T07:15:06.900Z,65.75
2023-01-09T07:17:35.819Z,63.83
2023-01-09T07:20:05.607Z,72.45
2023-01-09T07:22:34.546Z,62.63
2023-01-09T07:25:06.521Z,64.80
2023-01-09T07:27:35.426Z,65.97
2023-01-09T07:30:05.767Z,72.57
2023-01-09T07:32:35.032Z,63.90
2023-01-09T07:35:04.563Z,69.95
2023-01-09T07:37:34.340Z,70.13
2023-01-09T07:40:06.137Z,85.38
2023-01-09T07:42:35.014Z,72.55
2023-01-09T07:45:04.228Z,69.45
2023-01-09T07:47:33.161Z,70.95
2023-01-09T07:50:02.138Z,73.70
2023-01-09T07:52:30.957Z,69.82
2023-01-09T07:54:59.735Z,61.95
2023-01-09T07:57:30.814Z,58.00
2023-01-09T08:00:01.166Z,53.65
2023-01-09T08:02:40.301Z,43.30
2023-01-09T08:05:14.792Z,43.75
2023-01-09T08:07:44.218Z,42.45
2023-01-09T08:10:13.772Z,39.15
2023-01-09T08:12:45.525Z,36.20
2023-01-09T08:15:15.308Z,39.65
2023-01-09T08:17:46.038Z,42.08
2023-01-09T08:20:17.341Z,37.63
2023-01-09T08:22:50.743Z,34.92
2023-01-09T08:25:20.009Z,34.53
2023-01-09T08:27:50.348Z,32.53
2023-01-09T08:30:19.864Z,35.60
2023-01-09T08:32:52.538Z,34.38
2023-01-09T08:35:21.777Z,33.53
2023-01-09T08:37:50.771Z,31.85
2023-01-09T08:40:20.168Z,32.97
2023-01-09T08:43:08.194Z,27.30
2023-01-09T08:45:54.681Z,30.80
2023-01-09T08:48:23.531Z,29.50
2023-01-09T08:50:54.171Z,26.48
2023-01-09T08:53:23.114Z,23.05
2023-01-09T08:55:51.927Z,23.88
2023-01-09T08:58:22.226Z,20.08
2023-01-09T09:00:51.094Z,23.45
2023-01-09T09:03:19.935Z,16.98
2023-01-09T09:05:48.961Z,22.05
2023-01-09T09:08:17.887Z,27.23
2023-01-09T09:10:46.794Z,25.67
2023-01-09T09:13:15.664Z,26.95
2023-01-09T09:15:45.957Z,27.60
2023-01-09T09:18:15.137Z,25.10
2023-01-09T09:20:44.320Z,25.80
2023-01-09T09:23:13.202Z,17.00
2023-01-09T09:25:42.032Z,16.77
2023-01-09T09:28:10.973Z,16.38
2023-01-09T09:30:40.383Z,15.30
2023-01-09T09:33:10.660Z,23.60
2023-01-09T09:35:39.554Z,20.95
2023-01-09T09:38:08.440Z,13.63
2023-01-09T09:41:07.283Z,14.75
2023-01-09T09:44:25.319Z,14.70
2023-01-09T09:47:02.551Z,16.00
2023-01-09T09:49:43.892Z,16.25
2023-01-09T09:52:27.012Z,16.00
2023-01-09T09:54:59.666Z,17.00
2023-01-09T09:57:35.155Z,15.82
2023-01-09T10:00:06.131Z,15.07
2023-01-09T10:02:50.505Z,17.15
2023-01-09T10:05:28.327Z,13.93
2023-01-09T10:08:14.901Z,14.25
2023-01-09T10:10:52.430Z,21.35
2023-01-09T10:13:43.693Z,19.75
2023-01-09T10:16:30.312Z,18.52
2023-01-09T10:19:11.801Z,15.23
2023-01-09T10:21:51.400Z,16.00
2023-01-09T10:24:40.486Z,15.40
2023-01-09T10:27:20.899Z,14.77
2023-01-09T10:30:11.111Z,15.88
2023-01-09T10:33:02.151Z,17.67
2023-01-09T10:35:47.935Z,17.83
2023-01-09T10:38:24.661Z,16.77
2023-01-09T10:41:01.432Z,16.13
2023-01-09T10:43:35.881Z,16.52
2023-01-09T10:46:08.850Z,20.52
2023-01-09T10:48:39.735Z,19.98
2023-01-09T10:51:19.345Z,16.13
2023-01-09T10:53:53.189Z,16.70
2023-01-09T10:56:24.827Z,15.55
2023-01-09T10:58:55.072Z,17.65
2023-01-09T11:01:29.194Z,13.73
2023-01-09T11:03:59.228Z,15.23
2023-01-09T11:06:33.704Z,13.68
2023-01-09T11:09:06.390Z,14.60
2023-01-09T11:11:37.047Z,15.50
2023-01-09T11:14:09.022Z,12.25
2023-01-09T11:16:37.838Z,14.65
2023-01-09T11:19:06.627Z,14.43
2023-01-09T11:21:38.261Z,12.68
2023-01-09T11:24:31.076Z,10.45
2023-01-09T11:27:25.710Z,13.18
2023-01-09T11:30:28.048Z,17.42
2023-01-09T11:32:58.988Z,21.13
2023-01-09T11:35:33.769Z,17.38
2023-01-09T11:38:13.674Z,13.95
2023-01-09T11:40:50.576Z,14.10
2023-01-09T11:43:25.672Z,18.20
2023-01-09T11:48:34.306Z,10.07
2023-01-09T11:51:05.971Z,12.00
2023-01-09T11:53:53.660Z,9.85
2023-01-09T11:56:23.997Z,10.70
2023-01-09T11:58:52.864Z,8.90
2023-01-09T12:02:00.696Z,9.48
2023-01-09T12:04:35.203Z,8.40
2023-01-09T12:07:23.136Z,13.20
2023-01-09T12:10:04.520Z,14.02
2023-01-09T12:12:49.660Z,10.15
2023-01-09T12:15:27.780Z,9.52
2023-01-09T12:18:23.985Z,9.23
2023-01-09T12:21:30.314Z,9.13
2023-01-09T12:24:18.621Z,9.52
2023-01-09T12:26:54.594Z,9.98
2023-01-09T12:29:48.422Z,8.80
2023-01-09T12:32:36.603Z,10.10
2023-01-09T12:35:17.046Z,9.95
2023-01-09T12:38:16.786Z,8.63
2023-01-09T12:41:13.008Z,9.57
2023-01-09T12:43:51.999Z,8.38
2023-01-09T12:46:24.565Z,8.85
2023-01-09T12:49:24.390Z,8.55
2023-01-09T12:52:02.418Z,12.32
2023-01-09T12:54:38.243Z,9.95
2023-01-09T12:57:15.342Z,10.40
2023-01-09T12:59:48.486Z,7.63
2023-01-09T13:02:25.306Z,9.00
2023-01-09T13:04:57.976Z,10.93
2023-01-09T13:07:30.874Z,11.30
2023-01-09T13:10:04.084Z,9.13
2023-01-09T13:12:36.904Z,8.18
2023-01-09T13:15:08.741Z,8.05
2023-01-09T13:17:44.039Z,19.80
2023-01-09T13:20:21.042Z,10.57
2023-01-09T13:22:52.428Z,10.10
2023-01-09T13:25:39.518Z,9.05
2023-01-09T13:28:15.321Z,8.48
2023-01-09T13:31:09.942Z,8.27
2023-01-09T13:33:43.109Z,6.80
2023-01-09T13:36:25.581Z,8.55
2023-01-09T13:38:56.160Z,8.43
2023-01-09T13:41:45.776Z,7.60
2023-01-09T13:44:24.956Z,8.55
2023-01-09T13:46:56.807Z,8.15
2023-01-09T13:50:06.644Z,8.27
2023-01-09T13:52:37.895Z,8.35
2023-01-09T13:55:29.931Z,8.57
2023-01-09T13:58:24.887Z,7.13
2023-01-09T14:01:03.347Z,9.00
2023-01-09T14:03:35.687Z,8.73
2023-01-09T14:06:13.196Z,9.60
2023-01-09T14:08:43.343Z,8.68
2023-01-09T14:11:23.211Z,10.85
2023-01-09T14:14:04.020Z,9.82
2023-01-09T14:16:33.231Z,9.55
2023-01-09T14:19:18.053Z,8.05
2023-01-09T14:21:50.939Z,9.68
2023-01-09T14:24:24.495Z,8.90
2023-01-09T14:26:57.267Z,8.73
2023-01-09T14:29:47.531Z,10.77
2023-01-09T14:32:38.997Z,8.95
2023-01-09T14:35:27.594Z,9.20
2023-01-09T14:38:24.224Z,12.52
2023-01-09T14:40:57.118Z,12.48
2023-01-09T14:43:33.883Z,15.75
2023-01-09T14:46:10.623Z,14.68
2023-01-09T14:48:45.451Z,11.65
2023-01-09T14:51:18.508Z,13.40
2023-01-09T14:53:53.039Z,23.73
2023-01-09T14:56:28.716Z,19.67
2023-01-09T14:59:13.502Z,18.75
2023-01-09T15:01:46.249Z,16.75
2023-01-09T15:04:31.777Z,13.70
2023-01-09T15:07:00.721Z,13.98
2023-01-09T15:09:39.134Z,15.23
2023-01-09T15:12:11.328Z,12.77
2023-01-09T15:14:43.323Z,14.15
2023-01-09T15:17:21.068Z,11.15
2023-01-09T15:19:50.286Z,12.57
2023-01-09T15:22:24.719Z,11.93
2023-01-09T15:24:54.947Z,14.48
2023-01-09T15:27:24.218Z,11.38
2023-01-09T15:29:53.959Z,12.32
2023-01-09T15:32:26.404Z,11.95
2023-01-09T15:34:56.276Z,12.82
2023-01-09T15:37:29.711Z,12.43
2023-01-09T15:40:02.653Z,13.00
2023-01-09T15:42:52.445Z,13.93
2023-01-09T15:45:25.774Z,12.13
2023-01-09T15:47:55.808Z,30.98
2023-01-09T15:50:28.943Z,33.72
2023-01-09T15:52:58.372Z,29.02
2023-01-09T15:55:35.739Z,35.58
2023-01-09T15:58:06.169Z,26.58
2023-01-09T16:00:39.521Z,29.00
2023-01-09T16:03:20.468Z,30.15
2023-01-09T16:05:53.151Z,34.30
2023-01-09T16:08:26.364Z,40.67
2023-01-09T16:10:59.552Z,42.75
2023-01-09T16:13:31.204Z,38.90
2023-01-09T16:16:03.265Z,38.30
2023-01-09T16:18:34.930Z,38.05
2023-01-09T16:21:22.882Z,40.05
2023-01-09T16:23:53.809Z,40.50
2023-01-09T16:26:26.226Z,41.35
2023-01-09T16:28:55.813Z,41.25
2023-01-09T16:31:27.004Z,42.17
2023-01-09T16:33:59.163Z,34.47
2023-01-09T16:36:29.250Z,34.78
2023-01-09T16:39:00.844Z,39.72
2023-01-09T16:41:49.186Z,42.08
2023-01-09T16:44:19.412Z,50.70
2023-01-09T16:46:48.433Z,47.53
2023-01-09T16:49:23.395Z,50.90
2023-01-09T16:51:53.154Z,41.70
2023-01-09T16:54:22.750Z,37.03
2023-01-09T16:56:55.672Z,35.60
2023-01-09T16:59:28.177Z,36.67
2023-01-09T17:01:57.072Z,35.78
2023-01-09T17:04:26.092Z,36.45
2023-01-09T17:06:55.169Z,41.65
2023-01-09T17:09:27.388Z,39.47
2023-01-09T17:11:57.808Z,45.38
2023-01-09T17:14:28.778Z,42.83
2023-01-09T17:16:57.850Z,47.17
2023-01-09T17:19:26.744Z,47.75
2023-01-09T17:21:55.598Z,40.97
2023-01-09T17:24:42.208Z,41.00
2023-01-09T17:27:30.092Z,38.90
2023-01-09T17:29:59.426Z,34.10
2023-01-09T17:32:31.439Z,29.08
2023-01-09T17:35:00.325Z,29.53
2023-01-09T17:37:30.506Z,31.38
2023-01-09T17:40:03.716Z,32.63
2023-01-09T17:42:33.966Z,33.45
2023-01-09T17:45:03.235Z,29.00
2023-01-09T17:47:33.924Z,29.25
2023-01-09T17:50:03.134Z,29.90
2023-01-09T17:52:32.238Z,32.38
2023-01-09T17:55:05.329Z,33.60
2023-01-09T17:57:35.635Z,32.78
2023-01-09T18:00:06.450Z,28.75
2023-01-09T18:02:35.191Z,31.77
2023-01-09T18:05:04.710Z,33.60
2023-01-09T18:07:33.479Z,16.23
2023-01-09T18:10:02.365Z,19.92
2023-01-09T18:12:31.245Z,23.45
2023-01-09T18:15:02.584Z,24.67
2023-01-09T18:17:31.465Z,19.25
2023-01-09T18:20:00.367Z,25.17
2023-01-09T18:22:29.650Z,23.25
2023-01-09T18:24:58.439Z,22.77
2023-01-09T18:27:27.337Z,20.67
2023-01-09T18:29:56.925Z,21.58
2023-01-09T18:32:27.392Z,19.52
2023-01-09T18:34:56.291Z,19.42
2023-01-09T18:37:25.120Z,22.00
2023-01-09T18:39:53.995Z,28.00
2023-01-09T18:42:22.882Z,26.50
2023-01-09T18:44:51.735Z,29.75
2023-01-09T18:47:20.565Z,38.40
2023-01-09T18:49:50.827Z,47.05
2023-01-09T18:52:19.718Z,39.25
2023-01-09T18:54:48.524Z,34.95
2023-01-09T18:57:17.465Z,34.00
2023-01-09T18:59:46.366Z,35.10
2023-01-09T19:02:20.653Z,22.48
2023-01-09T19:04:51.022Z,27.98
2023-01-09T19:07:20.209Z,19.33
2023-01-09T19:09:49.430Z,12.25
2023-01-09T19:12:18.281Z,12.02
2023-01-09T19:14:47.197Z,11.93
2023-01-09T19:17:16.001Z,11.15
2023-01-09T19:19:45.121Z,11.32
2023-01-09T19:22:15.453Z,13.38
2023-01-09T19:24:44.289Z,17.52
2023-01-09T19:27:13.137Z,11.38
2023-01-09T19:29:41.958Z,12.63
2023-01-09T19:32:13.909Z,12.00
2023-01-09T19:34:42.725Z,16.58
2023-01-09T19:37:11.580Z,11.10
2023-01-09T19:39:42.238Z,10.93
2023-01-09T19:42:11.197Z,12.60
2023-01-09T19:44:40.030Z,13.05
2023-01-09T19:47:09.316Z,11.95
2023-01-09T19:49:38.523Z,13.20
2023-01-09T19:52:07.396Z,11.65
2023-01-09T19:54:36.598Z,11.68
2023-01-09T19:57:07.023Z,11.35
2023-01-09T19:59:36.179Z,13.10
2023-01-09T20:02:05.200Z,11.18
2023-01-09T20:04:34.132Z,9.75
2023-01-09T20:07:05.059Z,9.60
2023-01-09T20:09:34.171Z,10.05
2023-01-09T20:12:05.435Z,9.93
2023-01-09T20:14:37.861Z,12.52
2023-01-09T20:17:06.732Z,13.35
2023-01-09T20:19:35.587Z,11.90
2023-01-09T20:22:04.440Z,19.75
2023-01-09T20:24:33.310Z,20.02
2023-01-09T20:27:02.167Z,13.52
2023-01-09T20:29:31.033Z,9.82
2023-01-09T20:32:02.895Z,10.85
2023-01-09T20:34:31.732Z,11.27
2023-01-09T20:37:00.598Z,9.85
2023-01-09T20:39:29.545Z,10.45
2023-01-09T20:41:58.415Z,9.93
2023-01-09T20:44:27.224Z,8.80
2023-01-09T20:46:56.098Z,9.85
2023-01-09T20:49:26.347Z,10.32
2023-01-09T20:51:55.188Z,10.45
2023-01-09T20:54:25.114Z,12.35
2023-01-09T20:56:54.077Z,11.85
2023-01-09T20:59:23.138Z,12.15
2023-01-09T21:01:52.405Z,12.60
2023-01-09T21:04:21.305Z,15.10
2023-01-09T21:06:51.551Z,19.65
2023-01-09T21:09:20.829Z,22.98
2023-01-09T21:11:49.635Z,19.17
2023-01-09T21:14:18.598Z,19.08
2023-01-09T21:16:54.631Z,22.33
2023-01-09T21:19:24.355Z,20.80
2023-01-09T21:21:54.639Z,18.75
2023-01-09T21:24:23.477Z,23.67
2023-01-09T21:26:52.311Z,39.83
2023-01-09T21:29:21.098Z,38.25
2023-01-09T21:31:49.974Z,36.38
2023-01-09T21:34:20.743Z,32.42
2023-01-09T21:36:50.283Z,28.30
2023-01-09T21:39:21.912Z,21.17
2023-01-09T21:42:07.964Z,23.27
2023-01-09T21:44:53.762Z,38.53
2023-01-09T21:47:22.952Z,51.85
2023-01-09T21:49:51.952Z,56.65
2023-01-09T21:52:21.032Z,55.70
2023-01-09T21:54:51.255Z,49.30
2023-01-09T21:57:20.218Z,40.60
2023-01-09T21:59:49.086Z,35.97
2023-01-09T22:02:17.957Z,34.20
2023-01-09T22:04:49.088Z,31.80
2023-01-09T22:07:18.315Z,23.70
2023-01-09T22:09:47.391Z,20.52
2023-01-09T22:12:17.639Z,24.23
2023-01-09T22:14:46.540Z,20.38
2023-01-09T22:17:15.355Z,24.48
2023-01-09T22:19:44.177Z,22.95
2023-01-09T22:22:13.003Z,22.13
2023-01-09T22:24:41.837Z,23.17
2023-01-09T22:27:10.668Z,25.58
2023-01-09T22:29:40.854Z,26.13
2023-01-09T22:32:09.684Z,27.70
2023-01-09T22:34:38.667Z,26.15
2023-01-09T22:37:07.517Z,31.85
2023-01-09T22:39:36.422Z,26.05
2023-01-09T22:42:05.643Z,22.40
2023-01-09T22:44:34.505Z,25.73
2023-01-09T22:47:05.934Z,27.17
2023-01-09T22:49:51.844Z,36.30
2023-01-09T22:52:21.964Z,28.02
2023-01-09T22:54:50.943Z,24.92
2023-01-09T22:57:19.737Z,30.65
2023-01-09T22:59:48.557Z,26.85
2023-01-09T23:02:19.034Z,27.25
2023-01-09T23:04:48.031Z,26.75
2023-01-09T23:07:17.171Z,25.30
2023-01-09T23:09:46.158Z,25.83
2023-01-09T23:12:15.897Z,24.27
2023-01-09T23:14:46.846Z,22.80
2023-01-09T23:17:15.702Z,26.58
2023-01-09T23:19:45.983Z,20.60
2023-01-09T23:22:14.831Z,17.38
2023-01-09T23:24:43.642Z,19.67
2023-01-09T23:27:12.713Z,20.83
2023-01-09T23:29:41.555Z,17.95
2023-01-09T23:32:12.130Z,19.33
2023-01-09T23:34:41.693Z,20.80
2023-01-09T23:37:11.989Z,18.80
2023-01-09T23:39:40.887Z,19.58
2023-01-09T23:42:29.051Z,19.17
2023-01-09T23:44:57.852Z,17.42
2023-01-09T23:47:26.733Z,15.25
2023-01-09T23:49:55.606Z,14.50
2023-01-09T23:52:25.926Z,14.32
2023-01-09T23:54:56.639Z,16.55
2023-01-09T23:57:26.364Z,14.82
2023-01-09T23:59:55.145Z,16.63
